Impacts TAF Board
For situational awareness. Not to be used for flight planning purposes.
IDs:

KSLN - Salina Muni, KS, US

Issued at 0520 UTC 16 Jul 2019
Updated at 1019 UTC 16 Jul 2019
Potential Impact None Slight Moderate High
Time0953Z 16/11Z 16/12Z 16/13Z 16/14Z 16/15Z 16/16Z 16/17Z 16/18Z 16/19Z 16/20Z 16/21Z 16/22Z 16/23Z>>
Type OBS PRVL PRVL PRVL PRVL PRVL PRVL PRVL PRVL PRVL PRVL PRVL PRVL PRVL
VIS 10 >6 >6 >6 >6 >6 >6 >6 >6 >6 >6 >6 >6 >6
CIG -- -- -- -- -- -- -- -- -- -- -- -- -- --
Cover CLR SKC SKC SKC FEW FEW FEW FEW FEW FEW FEW FEW FEW FEW
FltCat VFR VFR VFR VFR VFR VFR VFR VFR VFR VFR VFR VFR VFR VFR
WX -- -- -- -- -- -- -- -- -- -- -- -- -- --
WDir 180 VRB VRB VRB 170 170 170 170 170 170 170 170 170 170
WSpd 4 4 4 4 7 7 7 7 12 12 12 12 12 12
WGst -- -- -- -- -- -- -- -- 15 15 15 15 15 15
Raw TAF
KSLN 160520Z 1606/1706 13005KT P6SM SKC
  FM160800 VRB04KT P6SM SKC
  FM161400 17007KT P6SM FEW250
  FM161800 17012G15KT P6SM FEW050
  FM170000 15008KT P6SM FEW250


Raw METAR
KSLN 160953Z AUTO 18004KT 10SM CLR 21/19 A2989 RMK AO2 SLP109 T02110189
KSLN 160853Z AUTO 17006KT 10SM CLR 22/19 A2991 RMK AO2 SLP113 T02170189 56004
KSLN 160753Z AUTO 17006KT 10SM CLR 22/19 A2991 RMK AO2 SLP113 T02170194

METAR Board
Radar Display
Forecast Discussion
For situational awareness. Not to be used for flight planning purposes.